createdAt,value
2018-05-24T00:02:23.502Z,100388.63
2018-05-24T00:04:51.767Z,100384.49
2018-05-24T00:07:19.516Z,100385.56
2018-05-24T00:09:47.068Z,100387.34
2018-05-24T00:12:14.557Z,100389.03
2018-05-24T00:14:41.993Z,100391.53
2018-05-24T00:17:09.407Z,100386.94
2018-05-24T00:19:36.811Z,100385.79
2018-05-24T00:22:04.246Z,100383.55
2018-05-24T00:24:31.763Z,100383.55
2018-05-24T00:26:59.157Z,100376.78
2018-05-24T00:29:26.593Z,100378.59
2018-05-24T00:31:54.709Z,100379.83
2018-05-24T00:34:22.356Z,100382.23
2018-05-24T00:36:50.069Z,100371.89
2018-05-24T00:39:17.625Z,100376.16
2018-05-24T00:41:45.096Z,100367.13
2018-05-24T00:44:12.647Z,100369.25
2018-05-24T00:46:40.053Z,100363.69
2018-05-24T00:49:07.460Z,100366.12
2018-05-24T00:51:34.885Z,100361.69
2018-05-24T00:54:02.473Z,100359.07
2018-05-24T00:56:29.855Z,100352.79
2018-05-24T00:58:57.297Z,100351.10
2018-05-24T01:01:24.798Z,100346.23
2018-05-24T01:03:52.306Z,100344.45
2018-05-24T01:06:19.939Z,100340.61
2018-05-24T01:08:47.616Z,100346.11
2018-05-24T01:11:15.027Z,100338.57
2018-05-24T01:13:42.494Z,100337.59
2018-05-24T01:16:09.968Z,100337.83
2018-05-24T01:18:37.482Z,100334.53
2018-05-24T01:21:04.985Z,100338.12
2018-05-24T01:23:32.452Z,100338.12
2018-05-24T01:25:59.962Z,100342.05
2018-05-24T01:28:27.410Z,100345.20
2018-05-24T01:30:55.057Z,100347.58
2018-05-24T01:33:22.510Z,100355.53
2018-05-24T01:35:50.142Z,100351.63
2018-05-24T01:38:17.566Z,100360.56
2018-05-24T01:40:45.274Z,100356.99
2018-05-24T01:43:12.852Z,100355.92
2018-05-24T01:45:40.302Z,100362.65
2018-05-24T01:48:07.759Z,100370.94
2018-05-24T01:50:35.386Z,100371.98
2018-05-24T01:53:02.930Z,100374.80
2018-05-24T01:55:30.466Z,100378.70
2018-05-24T01:57:58.049Z,100382.41
2018-05-24T02:00:25.516Z,100386.74
2018-05-24T02:02:53.335Z,100378.77
2018-05-24T02:05:20.798Z,100385.52
2018-05-24T02:07:48.424Z,100380.06
2018-05-24T02:10:15.999Z,100386.77
2018-05-24T02:12:43.617Z,100386.67
2018-05-24T02:15:11.112Z,100384.78
2018-05-24T02:17:38.578Z,100384.78
2018-05-24T02:20:06.010Z,100375.53
2018-05-24T02:22:33.418Z,100373.55
2018-05-24T02:25:00.825Z,100373.15
2018-05-24T02:27:28.297Z,100374.58
2018-05-24T02:29:55.767Z,100374.93
2018-05-24T02:32:23.286Z,100374.21
2018-05-24T02:34:51.247Z,100381.65
2018-05-24T02:37:18.767Z,100383.06
2018-05-24T02:39:46.377Z,100380.82
2018-05-24T02:42:13.899Z,100379.80
2018-05-24T02:44:41.323Z,100377.48
2018-05-24T02:47:08.714Z,100375.47
2018-05-24T02:49:36.112Z,100372.26
2018-05-24T02:52:03.508Z,100371.09
2018-05-24T02:54:30.907Z,100373.02
2018-05-24T02:56:58.361Z,100364.95
2018-05-24T02:59:25.975Z,100362.27
2018-05-24T03:01:53.441Z,100358.81
2018-05-24T03:04:20.890Z,100358.44
2018-05-24T03:06:48.418Z,100354.88
2018-05-24T03:09:15.939Z,100357.55
2018-05-24T03:11:43.360Z,100354.27
2018-05-24T03:14:10.787Z,100352.48
2018-05-24T03:16:38.184Z,100353.59
2018-05-24T03:19:05.718Z,100357.06
2018-05-24T03:21:33.267Z,100358.31
2018-05-24T03:24:00.686Z,100359.05
2018-05-24T03:26:28.135Z,100356.83
2018-05-24T03:28:55.716Z,100358.75
2018-05-24T03:31:23.143Z,100354.25
2018-05-24T03:33:54.468Z,100355.70
2018-05-24T03:36:21.962Z,100350.72
2018-05-24T03:38:52.431Z,100354.45
2018-05-24T03:41:20.721Z,100354.48
2018-05-24T03:43:48.162Z,100349.23
2018-05-24T03:46:15.621Z,100350.61
2018-05-24T03:48:44.097Z,100346.26
2018-05-24T03:51:12.203Z,100345.89
2018-05-24T03:53:39.590Z,100350.38
2018-05-24T03:56:06.995Z,100360.62
2018-05-24T03:58:34.496Z,100359.37
2018-05-24T04:01:13.650Z,100357.97
2018-05-24T04:03:47.845Z,100364.16
2018-05-24T04:06:15.301Z,100357.98
2018-05-24T04:08:42.694Z,100361.82
2018-05-24T04:11:10.144Z,100356.41
2018-05-24T04:13:37.544Z,100370.31
2018-05-24T04:16:04.931Z,100371.38
2018-05-24T04:18:32.306Z,100373.84
2018-05-24T04:20:59.718Z,100377.52
2018-05-24T04:23:27.111Z,100377.15
2018-05-24T04:25:54.510Z,100381.84
2018-05-24T04:28:21.894Z,100379.27
2018-05-24T04:30:49.303Z,100380.91
2018-05-24T04:33:16.695Z,100377.02
2018-05-24T04:35:44.092Z,100380.02
2018-05-24T04:38:11.505Z,100376.55
2018-05-24T04:40:38.917Z,100374.67
2018-05-24T04:43:06.300Z,100372.18
2018-05-24T04:45:33.795Z,100380.16
2018-05-24T04:48:01.091Z,100376.03
2018-05-24T04:50:28.479Z,100379.41
2018-05-24T04:52:55.878Z,100377.41
2018-05-24T04:55:23.280Z,100375.20
2018-05-24T04:57:50.685Z,100375.52
2018-05-24T05:00:18.080Z,100377.61
2018-05-24T05:02:45.471Z,100373.59
2018-05-24T05:05:12.871Z,100377.94
2018-05-24T05:07:40.268Z,100375.53
2018-05-24T05:10:07.665Z,100376.63
2018-05-24T05:12:35.056Z,100376.46
2018-05-24T05:15:02.443Z,100371.63
2018-05-24T05:17:29.843Z,100377.78
2018-05-24T05:19:57.233Z,100374.28
2018-05-24T05:22:24.629Z,100374.78
2018-05-24T05:24:52.034Z,100376.03
2018-05-24T05:27:19.429Z,100384.23
2018-05-24T05:29:46.815Z,100381.28
2018-05-24T05:32:14.442Z,100375.00
2018-05-24T05:34:41.838Z,100380.48
2018-05-24T05:37:09.226Z,100375.55
2018-05-24T05:39:36.637Z,100373.97
2018-05-24T05:42:04.036Z,100382.48
2018-05-24T05:44:31.422Z,100388.59
2018-05-24T05:46:58.821Z,100386.68
2018-05-24T05:49:26.207Z,100396.00
2018-05-24T05:51:53.627Z,100400.30
2018-05-24T05:54:21.151Z,100414.30
2018-05-24T05:56:48.554Z,100423.02
2018-05-24T05:59:15.951Z,100423.94
2018-05-24T06:01:43.458Z,100425.28
2018-05-24T06:04:10.751Z,100428.86
2018-05-24T06:06:38.136Z,100430.06
2018-05-24T06:09:05.532Z,100423.32
2018-05-24T06:11:32.924Z,100426.39
2018-05-24T06:14:00.325Z,100428.48
2018-05-24T06:16:27.946Z,100419.94
2018-05-24T06:18:55.339Z,100421.68
2018-05-24T06:21:22.739Z,100418.30
2018-05-24T06:23:50.129Z,100419.58
2018-05-24T06:26:17.555Z,100411.67
2018-05-24T06:28:44.918Z,100420.46
2018-05-24T06:31:12.318Z,100413.47
2018-05-24T06:33:39.717Z,100413.26
2018-05-24T06:36:07.110Z,100411.53
2018-05-24T06:38:34.515Z,100409.06
2018-05-24T06:41:01.907Z,100409.02
2018-05-24T06:43:29.301Z,100407.16
2018-05-24T06:45:56.696Z,100403.75
2018-05-24T06:48:24.092Z,100412.12
2018-05-24T06:50:52.111Z,100412.28
2018-05-24T06:53:19.504Z,100411.72
2018-05-24T06:55:46.895Z,100410.34
2018-05-24T06:58:14.294Z,100411.89
2018-05-24T07:00:41.696Z,100415.00
2018-05-24T07:03:09.117Z,100414.06
2018-05-24T07:05:36.636Z,100416.67
2018-05-24T07:08:04.053Z,100415.21
2018-05-24T07:10:31.441Z,100413.25
2018-05-24T07:12:58.835Z,100415.31
2018-05-24T07:15:26.230Z,100414.17
2018-05-24T07:17:53.645Z,100414.64
2018-05-24T07:20:21.829Z,100417.27
2018-05-24T07:22:49.223Z,100419.13
2018-05-24T07:25:16.605Z,100414.45
2018-05-24T07:27:44.020Z,100415.80
2018-05-24T07:30:11.589Z,100412.55
2018-05-24T07:32:38.983Z,100408.03
2018-05-24T07:35:06.375Z,100413.34
2018-05-24T07:37:33.772Z,100418.83
2018-05-24T07:40:01.172Z,100420.10
2018-05-24T07:42:28.568Z,100422.70
2018-05-24T07:44:55.972Z,100421.19
2018-05-24T07:47:23.375Z,100422.05
2018-05-24T07:49:51.791Z,100414.33
2018-05-24T07:52:19.182Z,100408.02
2018-05-24T07:54:46.670Z,100407.11
2018-05-24T07:57:13.975Z,100415.07
2018-05-24T07:59:41.379Z,100409.94
2018-05-24T08:02:08.776Z,100409.39
2018-05-24T08:04:36.176Z,100412.34
2018-05-24T08:07:03.571Z,100413.81
2018-05-24T08:09:31.154Z,100418.30
2018-05-24T08:11:58.554Z,100408.47
2018-05-24T08:14:25.950Z,100413.22
2018-05-24T08:16:53.600Z,100420.44
2018-05-24T08:19:21.890Z,100415.59
2018-05-24T08:21:49.300Z,100413.13
2018-05-24T08:24:16.682Z,100411.53
2018-05-24T08:26:44.083Z,100418.12
2018-05-24T08:29:11.474Z,100411.28
2018-05-24T08:31:38.876Z,100410.01
2018-05-24T08:34:06.283Z,100410.48
2018-05-24T08:36:33.687Z,100408.84
2018-05-24T08:39:01.087Z,100410.59
2018-05-24T08:41:28.488Z,100406.26
2018-05-24T08:43:55.871Z,100411.45
2018-05-24T08:46:23.409Z,100397.38
2018-05-24T08:48:50.785Z,100404.74
2018-05-24T08:51:18.182Z,100396.06
2018-05-24T08:53:46.489Z,100400.02
2018-05-24T08:56:14.071Z,100401.34
2018-05-24T08:58:41.495Z,100401.80
2018-05-24T09:01:09.041Z,100403.09
2018-05-24T09:03:36.698Z,100406.83
2018-05-24T09:06:04.227Z,100403.02
2018-05-24T09:08:31.699Z,100403.55
2018-05-24T09:10:59.105Z,100405.72
2018-05-24T09:13:26.647Z,100404.40
2018-05-24T09:15:54.024Z,100408.77
2018-05-24T09:18:22.194Z,100406.60
2018-05-24T09:20:49.719Z,100417.02
2018-05-24T09:23:17.271Z,100414.44
2018-05-24T09:25:44.804Z,100412.30
2018-05-24T09:28:12.350Z,100414.05
2018-05-24T09:30:39.740Z,100414.92
2018-05-24T09:33:07.141Z,100414.91
2018-05-24T09:35:34.653Z,100418.80
2018-05-24T09:38:02.057Z,100417.45
2018-05-24T09:40:29.441Z,100416.16
2018-05-24T09:42:56.891Z,100423.53
2018-05-24T09:45:24.300Z,100420.47
2018-05-24T09:47:52.348Z,100417.45
2018-05-24T09:50:19.816Z,100414.01
2018-05-24T09:52:47.247Z,100414.02
2018-05-24T09:55:14.798Z,100410.58
2018-05-24T09:57:42.194Z,100417.09
2018-05-24T10:00:09.681Z,100414.05
2018-05-24T10:02:37.226Z,100417.47
2018-05-24T10:05:04.660Z,100410.52
2018-05-24T10:07:32.116Z,100405.65
2018-05-24T10:09:59.530Z,100406.67
2018-05-24T10:12:26.922Z,100403.16
2018-05-24T10:14:56.430Z,100407.54
2018-05-24T10:17:24.025Z,100402.32
2018-05-24T10:19:52.415Z,100401.44
2018-05-24T10:22:19.909Z,100397.91
2018-05-24T10:24:47.327Z,100395.71
2018-05-24T10:27:14.954Z,100393.98
2018-05-24T10:29:42.417Z,100398.75
2018-05-24T10:32:09.830Z,100395.31
2018-05-24T10:34:37.210Z,100401.39
2018-05-24T10:37:04.603Z,100391.48
2018-05-24T10:39:32.105Z,100398.00
2018-05-24T10:41:59.451Z,100401.04
2018-05-24T10:44:26.840Z,100391.52
2018-05-24T10:46:54.243Z,100394.97
2018-05-24T10:49:22.494Z,100391.08
2018-05-24T10:51:49.919Z,100395.00
2018-05-24T10:54:17.384Z,100389.80
2018-05-24T10:56:44.741Z,100386.33
2018-05-24T10:59:12.106Z,100382.42
2018-05-24T11:01:39.487Z,100382.37
2018-05-24T11:04:06.892Z,100380.19
2018-05-24T11:06:34.305Z,100378.91
2018-05-24T11:09:01.702Z,100384.59
2018-05-24T11:11:29.094Z,100386.76
2018-05-24T11:13:56.481Z,100384.62
2018-05-24T11:16:23.895Z,100384.18
2018-05-24T11:18:51.279Z,100379.41
2018-05-24T11:21:18.679Z,100381.14
2018-05-24T11:23:46.095Z,100388.94
2018-05-24T11:26:13.489Z,100387.20
2018-05-24T11:28:40.888Z,100391.06
2018-05-24T11:31:08.283Z,100379.83
2018-05-24T11:33:35.681Z,100381.95
2018-05-24T11:36:03.222Z,100383.23
2018-05-24T11:38:30.676Z,100391.02
2018-05-24T11:40:58.064Z,100378.92
2018-05-24T11:43:25.759Z,100387.13
2018-05-24T11:45:53.060Z,100378.91
2018-05-24T11:48:20.585Z,100375.45
2018-05-24T11:50:48.161Z,100378.48
2018-05-24T11:53:15.635Z,100376.75
2018-05-24T11:55:43.099Z,100377.19
2018-05-24T11:58:10.648Z,100372.00
2018-05-24T12:00:38.044Z,100375.45
2018-05-24T12:03:05.436Z,100372.00
2018-05-24T12:05:32.854Z,100372.02
2018-05-24T12:08:00.258Z,100370.28
2018-05-24T12:10:27.648Z,100372.84
2018-05-24T12:12:55.100Z,100375.86
2018-05-24T12:15:22.915Z,100369.42
2018-05-24T12:17:50.357Z,100368.47
2018-05-24T12:20:17.767Z,100367.67
2018-05-24T12:22:45.201Z,100361.20
2018-05-24T12:25:12.602Z,100361.65
2018-05-24T12:27:39.999Z,100361.27
2018-05-24T12:30:07.453Z,100354.31
2018-05-24T12:32:34.921Z,100353.77
2018-05-24T12:35:02.330Z,100350.23
2018-05-24T12:37:29.722Z,100344.85
2018-05-24T12:39:57.231Z,100342.08
2018-05-24T12:42:25.463Z,100335.15
2018-05-24T12:44:53.130Z,100341.54
2018-05-24T12:47:20.505Z,100328.95
2018-05-24T12:49:47.896Z,100330.14
2018-05-24T12:52:15.487Z,100329.88
2018-05-24T12:54:42.930Z,100323.06
2018-05-24T12:57:10.421Z,100318.78
2018-05-24T12:59:37.839Z,100314.38
2018-05-24T13:02:05.315Z,100311.38
2018-05-24T13:04:32.712Z,100307.63
2018-05-24T13:07:00.173Z,100295.94
2018-05-24T13:09:27.698Z,100297.20
2018-05-24T13:11:55.139Z,100297.27
2018-05-24T13:14:23.388Z,100297.17
2018-05-24T13:16:50.762Z,100297.66
2018-05-24T13:19:18.295Z,100297.22
2018-05-24T13:21:45.687Z,100287.34
2018-05-24T13:24:13.208Z,100271.52
2018-05-24T13:26:40.695Z,100275.73
2018-05-24T13:29:08.790Z,100274.78
2018-05-24T13:31:36.297Z,100281.87
2018-05-24T13:34:03.980Z,100272.81
2018-05-24T13:36:31.350Z,100274.17
2018-05-24T13:38:58.752Z,100274.14
2018-05-24T13:41:26.297Z,100266.97
2018-05-24T13:43:53.695Z,100263.97
2018-05-24T13:46:21.079Z,100257.80
2018-05-24T13:48:49.390Z,100254.81
2018-05-24T13:51:16.774Z,100256.56
2018-05-24T13:53:44.186Z,100251.66
2018-05-24T13:56:11.572Z,100255.01
2018-05-24T13:58:38.955Z,100259.63
2018-05-24T14:01:06.331Z,100263.61
2018-05-24T14:03:33.731Z,100255.09
2018-05-24T14:06:01.113Z,100264.42
2018-05-24T14:08:28.505Z,100259.70
2018-05-24T14:10:55.892Z,100256.69
2018-05-24T14:13:23.434Z,100257.02
2018-05-24T14:15:50.823Z,100261.30
2018-05-24T14:18:18.213Z,100259.31
2018-05-24T14:20:45.590Z,100261.55
2018-05-24T14:23:12.990Z,100261.09
2018-05-24T14:25:40.367Z,100264.05
2018-05-24T14:28:07.755Z,100251.76
2018-05-24T14:30:35.138Z,100253.59
2018-05-24T14:33:02.534Z,100259.16
2018-05-24T14:35:29.979Z,100260.26
2018-05-24T14:37:57.358Z,100251.38
2018-05-24T14:40:25.738Z,100252.62
2018-05-24T14:42:53.798Z,100246.58
2018-05-24T14:45:21.186Z,100250.09
2018-05-24T14:48:04.300Z,100235.63
2018-05-24T14:50:31.683Z,100236.52
2018-05-24T14:52:59.072Z,100239.33
2018-05-24T14:55:26.462Z,100228.80
2018-05-24T14:57:53.842Z,100227.25
2018-05-24T15:00:21.236Z,100221.80
2018-05-24T15:02:48.619Z,100223.23
2018-05-24T15:05:16.010Z,100234.41
2018-05-24T15:07:43.394Z,100233.63
2018-05-24T15:10:10.787Z,100226.92
2018-05-24T15:12:38.176Z,100230.74
2018-05-24T15:15:05.550Z,100240.77
2018-05-24T15:17:32.939Z,100241.50
2018-05-24T15:20:00.339Z,100239.49
2018-05-24T15:22:27.715Z,100237.82
2018-05-24T15:24:55.104Z,100240.70
2018-05-24T15:27:22.493Z,100240.63
2018-05-24T15:29:49.882Z,100241.02
2018-05-24T15:32:17.246Z,100248.62
2018-05-24T15:34:44.683Z,100242.55
2018-05-24T15:37:12.071Z,100240.70
2018-05-24T15:39:39.446Z,100239.05
2018-05-24T15:42:06.829Z,100237.99
2018-05-24T15:44:34.471Z,100240.52
2018-05-24T15:47:01.886Z,100243.98
2018-05-24T15:49:29.279Z,100241.85
2018-05-24T15:51:56.659Z,100234.49
2018-05-24T15:54:24.051Z,100235.95
2018-05-24T15:56:51.427Z,100227.99
2018-05-24T15:59:18.819Z,100228.41
2018-05-24T16:01:46.191Z,100231.75
2018-05-24T16:04:13.590Z,100231.44
2018-05-24T16:06:40.967Z,100226.73
2018-05-24T16:09:08.353Z,100227.63
2018-05-24T16:11:35.783Z,100219.94
2018-05-24T16:14:03.171Z,100215.72
2018-05-24T16:16:30.550Z,100218.89
2018-05-24T16:18:57.929Z,100215.32
2018-05-24T16:21:25.311Z,100216.23
2018-05-24T16:23:52.691Z,100213.47
2018-05-24T16:26:20.086Z,100215.22
2018-05-24T16:28:48.155Z,100223.70
2018-05-24T16:31:15.541Z,100225.72
2018-05-24T16:33:42.915Z,100221.11
2018-05-24T16:36:10.315Z,100223.00
2018-05-24T16:38:37.712Z,100218.45
2018-05-24T16:41:05.099Z,100216.48
2018-05-24T16:43:32.514Z,100215.77
2018-05-24T16:45:59.882Z,100210.33
2018-05-24T16:48:27.266Z,100204.08
2018-05-24T16:50:54.653Z,100202.17
2018-05-24T16:53:22.031Z,100202.13
2018-05-24T16:55:49.429Z,100208.59
2018-05-24T16:58:16.802Z,100199.56
2018-05-24T17:00:44.191Z,100194.66
2018-05-24T17:03:11.588Z,100196.19
2018-05-24T17:05:38.974Z,100192.48
2018-05-24T17:08:06.357Z,100197.52
2018-05-24T17:10:33.852Z,100199.32
2018-05-24T17:13:01.228Z,100201.88
2018-05-24T17:15:28.621Z,100202.77
2018-05-24T17:17:56.218Z,100197.11
2018-05-24T17:20:24.312Z,100201.95
2018-05-24T17:22:51.701Z,100203.67
2018-05-24T17:25:19.072Z,100208.37
2018-05-24T17:27:46.457Z,100215.66
2018-05-24T17:30:13.861Z,100217.07
2018-05-24T17:32:41.249Z,100216.17
2018-05-24T17:35:08.640Z,100214.52
2018-05-24T17:37:36.025Z,100217.93
2018-05-24T17:40:03.416Z,100225.16
2018-05-24T17:42:30.801Z,100230.43
2018-05-24T17:44:58.196Z,100229.95
2018-05-24T17:47:25.563Z,100224.80
2018-05-24T17:49:52.950Z,100225.57
2018-05-24T17:52:20.327Z,100226.09
2018-05-24T17:54:47.719Z,100223.73
2018-05-24T17:57:15.099Z,100224.66
2018-05-24T17:59:42.479Z,100226.65
2018-05-24T18:02:09.856Z,100228.91
2018-05-24T18:04:37.250Z,100231.28
2018-05-24T18:07:04.629Z,100227.53
2018-05-24T18:09:32.025Z,100234.98
2018-05-24T18:11:59.393Z,100225.97
2018-05-24T18:14:26.789Z,100229.03
2018-05-24T18:16:54.643Z,100229.92
2018-05-24T18:19:22.032Z,100230.74
2018-05-24T18:21:49.422Z,100231.81
2018-05-24T18:24:16.797Z,100232.34
2018-05-24T18:26:44.182Z,100234.08
2018-05-24T18:29:11.567Z,100237.14
2018-05-24T18:31:38.956Z,100243.25
2018-05-24T18:34:06.336Z,100244.67
2018-05-24T18:36:33.723Z,100246.06
2018-05-24T18:39:01.111Z,100249.08
2018-05-24T18:41:28.492Z,100254.81
2018-05-24T18:43:55.866Z,100263.02
2018-05-24T18:46:23.255Z,100259.62
2018-05-24T18:48:50.643Z,100264.53
2018-05-24T18:51:18.049Z,100265.84
2018-05-24T18:53:45.434Z,100263.20
2018-05-24T18:56:12.861Z,100268.84
2018-05-24T18:58:40.194Z,100273.18
2018-05-24T19:01:07.596Z,100280.99
2018-05-24T19:03:34.978Z,100278.39
2018-05-24T19:06:02.367Z,100290.98
2018-05-24T19:08:29.759Z,100284.48
2018-05-24T19:10:57.958Z,100292.77
2018-05-24T19:13:25.396Z,100291.89
2018-05-24T19:15:52.730Z,100289.33
2018-05-24T19:18:20.925Z,100289.34
2018-05-24T19:20:48.325Z,100290.19
2018-05-24T19:23:15.704Z,100288.91
2018-05-24T19:25:43.092Z,100288.94
2018-05-24T19:28:10.474Z,100294.14
2018-05-24T19:30:37.863Z,100291.98
2018-05-24T19:33:05.248Z,100295.47
2018-05-24T19:35:32.640Z,100298.47
2018-05-24T19:38:00.073Z,100301.06
2018-05-24T19:40:27.448Z,100304.13
2018-05-24T19:42:54.954Z,100306.28
2018-05-24T19:45:22.560Z,100305.85
2018-05-24T19:47:49.945Z,100317.12
2018-05-24T19:50:17.388Z,100314.52
2018-05-24T19:52:44.718Z,100314.53
2018-05-24T19:55:12.099Z,100317.98
2018-05-24T19:57:39.479Z,100312.38
2018-05-24T20:00:06.866Z,100320.57
2018-05-24T20:02:34.243Z,100314.08
2018-05-24T20:05:01.743Z,100316.25
2018-05-24T20:07:29.143Z,100323.17
2018-05-24T20:09:56.522Z,100320.56
2018-05-24T20:12:23.920Z,100321.87
2018-05-24T20:14:51.297Z,100322.73
2018-05-24T20:17:18.691Z,100324.02
2018-05-24T20:19:46.482Z,100333.54
2018-05-24T20:22:13.890Z,100329.19
2018-05-24T20:24:41.283Z,100327.94
2018-05-24T20:27:08.682Z,100319.27
2018-05-24T20:29:36.075Z,100321.42
2018-05-24T20:32:03.471Z,100326.17
2018-05-24T20:34:30.857Z,100329.22
2018-05-24T20:36:58.243Z,100327.92
2018-05-24T20:39:26.038Z,100318.83
2018-05-24T20:41:53.435Z,100320.06
2018-05-24T20:44:20.826Z,100320.98
2018-05-24T20:46:48.219Z,100319.26
2018-05-24T20:49:15.606Z,100322.66
2018-05-24T20:51:43.003Z,100320.53
2018-05-24T20:54:10.396Z,100316.14
2018-05-24T20:56:37.802Z,100313.14
2018-05-24T20:59:05.190Z,100314.87
2018-05-24T21:01:32.612Z,100316.14
2018-05-24T21:03:59.996Z,100313.52
2018-05-24T21:06:27.401Z,100312.23
2018-05-24T21:08:55.542Z,100314.35
2018-05-24T21:11:22.937Z,100319.58
2018-05-24T21:13:50.360Z,100318.76
2018-05-24T21:16:18.000Z,100320.00
2018-05-24T21:18:45.435Z,100316.17
2018-05-24T21:21:12.998Z,100322.12
2018-05-24T21:23:40.387Z,100321.25
2018-05-24T21:26:07.782Z,100313.43
2018-05-24T21:28:35.316Z,100319.47
2018-05-24T21:31:02.710Z,100319.05
2018-05-24T21:33:30.100Z,100317.73
2018-05-24T21:35:57.496Z,100318.25
2018-05-24T21:38:25.672Z,100322.09
2018-05-24T21:40:53.062Z,100317.19
2018-05-24T21:43:20.449Z,100320.75
2018-05-24T21:45:47.848Z,100320.70
2018-05-24T21:48:15.226Z,100321.50
2018-05-24T21:50:42.623Z,100318.81
2018-05-24T21:53:10.027Z,100327.41
2018-05-24T21:55:37.421Z,100320.15
2018-05-24T21:58:04.824Z,100312.33
2018-05-24T22:00:32.226Z,100323.14
2018-05-24T22:02:59.648Z,100314.50
2018-05-24T22:05:27.026Z,100321.75
2018-05-24T22:07:54.422Z,100325.25
2018-05-24T22:10:21.820Z,100323.42
2018-05-24T22:12:49.215Z,100326.42
2018-05-24T22:15:16.607Z,100324.73
2018-05-24T22:17:44.007Z,100319.55
2018-05-24T22:20:11.421Z,100320.02
2018-05-24T22:22:38.812Z,100322.24
2018-05-24T22:25:06.213Z,100317.92
2018-05-24T22:27:33.606Z,100319.65
2018-05-24T22:30:00.994Z,100317.80
2018-05-24T22:32:28.387Z,100321.27
2018-05-24T22:34:56.677Z,100324.42
2018-05-24T22:37:24.117Z,100323.66
2018-05-24T22:39:52.438Z,100329.00
2018-05-24T22:42:19.882Z,100325.88
2018-05-24T22:44:47.289Z,100318.22
2018-05-24T22:47:14.703Z,100315.64
2018-05-24T22:49:42.130Z,100320.30
2018-05-24T22:52:12.125Z,100320.67
2018-05-24T22:54:39.525Z,100319.75
2018-05-24T22:57:06.937Z,100312.58
2018-05-24T22:59:34.327Z,100319.03
2018-05-24T23:02:01.736Z,100314.67
2018-05-24T23:04:29.122Z,100316.00
2018-05-24T23:06:56.528Z,100313.79
2018-05-24T23:09:23.931Z,100316.23
2018-05-24T23:11:51.373Z,100314.03
2018-05-24T23:14:18.763Z,100309.30
2018-05-24T23:16:46.177Z,100305.98
2018-05-24T23:19:13.583Z,100310.20
2018-05-24T23:21:40.992Z,100307.20
2018-05-24T23:24:08.388Z,100304.11
2018-05-24T23:26:35.790Z,100303.30
2018-05-24T23:29:03.186Z,100306.20
2018-05-24T23:31:30.606Z,100305.27
2018-05-24T23:33:58.003Z,100310.56
2018-05-24T23:36:26.227Z,100311.00
2018-05-24T23:38:53.619Z,100314.91
2018-05-24T23:41:21.028Z,100310.14
2018-05-24T23:43:48.417Z,100309.67
2018-05-24T23:46:15.966Z,100312.59
2018-05-24T23:48:44.141Z,100322.52
2018-05-24T23:51:11.537Z,100320.45
2018-05-24T23:53:38.963Z,100327.61
2018-05-24T23:56:06.911Z,100325.73
2018-05-24T23:58:34.311Z,100324.06
